sensor_id;sensor_type;location;lat;lon;timestamp;P1;durP1;ratioP1;P2;durP2;ratioP2
9657;SDS011;4867;48.112;11.622;2023-05-06T00:00:23;7.83;;;5.90;;
9657;SDS011;4867;48.112;11.622;2023-05-06T00:02:51;5.47;;;5.00;;
9657;SDS011;4867;48.112;11.622;2023-05-06T00:05:18;7.83;;;4.73;;
9657;SDS011;4867;48.112;11.622;2023-05-06T00:07:46;5.77;;;5.27;;
9657;SDS011;4867;48.112;11.622;2023-05-06T00:10:13;5.73;;;5.00;;
9657;SDS011;4867;48.112;11.622;2023-05-06T00:12:40;5.13;;;4.73;;
9657;SDS011;4867;48.112;11.622;2023-05-06T00:15:07;7.90;;;5.20;;
9657;SDS011;4867;48.112;11.622;2023-05-06T00:17:36;5.70;;;4.57;;
9657;SDS011;4867;48.112;11.622;2023-05-06T00:20:03;6.87;;;5.23;;
9657;SDS011;4867;48.112;11.622;2023-05-06T00:22:31;4.80;;;4.40;;
9657;SDS011;4867;48.112;11.622;2023-05-06T00:24:59;4.33;;;3.93;;
9657;SDS011;4867;48.112;11.622;2023-05-06T00:27:26;4.83;;;4.13;;
9657;SDS011;4867;48.112;11.622;2023-05-06T00:29:53;4.47;;;3.80;;
9657;SDS011;4867;48.112;11.622;2023-05-06T00:32:21;4.47;;;4.07;;
9657;SDS011;4867;48.112;11.622;2023-05-06T00:34:48;5.70;;;3.80;;
9657;SDS011;4867;48.112;11.622;2023-05-06T00:37:16;4.33;;;4.00;;
9657;SDS011;4867;48.112;11.622;2023-05-06T00:39:44;4.60;;;4.00;;
9657;SDS011;4867;48.112;11.622;2023-05-06T00:42:11;4.87;;;4.23;;
9657;SDS011;4867;48.112;11.622;2023-05-06T00:44:38;4.30;;;3.90;;
9657;SDS011;4867;48.112;11.622;2023-05-06T00:47:06;5.20;;;4.70;;
9657;SDS011;4867;48.112;11.622;2023-05-06T00:49:33;6.70;;;4.50;;
9657;SDS011;4867;48.112;11.622;2023-05-06T00:52:01;7.63;;;4.10;;
9657;SDS011;4867;48.112;11.622;2023-05-06T00:54:29;4.23;;;3.80;;
9657;SDS011;4867;48.112;11.622;2023-05-06T00:56:56;3.80;;;3.50;;
9657;SDS011;4867;48.112;11.622;2023-05-06T00:59:24;4.73;;;3.70;;
9657;SDS011;4867;48.112;11.622;2023-05-06T01:01:51;4.90;;;4.03;;
9657;SDS011;4867;48.112;11.622;2023-05-06T01:04:19;4.47;;;3.17;;
9657;SDS011;4867;48.112;11.622;2023-05-06T01:12:04;5.37;;;3.97;;
9657;SDS011;4867;48.112;11.622;2023-05-06T01:17:33;5.50;;;4.00;;
9657;SDS011;4867;48.112;11.622;2023-05-06T01:20:04;5.57;;;4.00;;
9657;SDS011;4867;48.112;11.622;2023-05-06T01:22:36;4.00;;;3.60;;
9657;SDS011;4867;48.112;11.622;2023-05-06T01:25:04;4.53;;;4.13;;
9657;SDS011;4867;48.112;11.622;2023-05-06T01:27:32;4.67;;;4.20;;
9657;SDS011;4867;48.112;11.622;2023-05-06T01:30:02;3.73;;;3.43;;
9657;SDS011;4867;48.112;11.622;2023-05-06T01:35:16;4.00;;;3.70;;
9657;SDS011;4867;48.112;11.622;2023-05-06T01:38:08;4.40;;;4.00;;
9657;SDS011;4867;48.112;11.622;2023-05-06T01:40:54;8.87;;;4.03;;
9657;SDS011;4867;48.112;11.622;2023-05-06T01:43:23;3.70;;;2.63;;
9657;SDS011;4867;48.112;11.622;2023-05-06T01:45:54;3.33;;;3.03;;
9657;SDS011;4867;48.112;11.622;2023-05-06T01:48:23;6.07;;;3.23;;
9657;SDS011;4867;48.112;11.622;2023-05-06T01:50:54;4.23;;;3.30;;
9657;SDS011;4867;48.112;11.622;2023-05-06T01:53:21;4.97;;;3.70;;
9657;SDS011;4867;48.112;11.622;2023-05-06T01:55:49;6.13;;;4.30;;
9657;SDS011;4867;48.112;11.622;2023-05-06T01:58:16;4.13;;;3.67;;
9657;SDS011;4867;48.112;11.622;2023-05-06T02:00:43;6.33;;;4.20;;
9657;SDS011;4867;48.112;11.622;2023-05-06T02:03:11;4.47;;;4.07;;
9657;SDS011;4867;48.112;11.622;2023-05-06T02:05:38;4.83;;;4.33;;
9657;SDS011;4867;48.112;11.622;2023-05-06T02:08:06;7.23;;;5.33;;
9657;SDS011;4867;48.112;11.622;2023-05-06T02:10:33;4.83;;;4.43;;
9657;SDS011;4867;48.112;11.622;2023-05-06T02:13:05;6.67;;;5.33;;
9657;SDS011;4867;48.112;11.622;2023-05-06T02:15:33;5.67;;;4.40;;
9657;SDS011;4867;48.112;11.622;2023-05-06T02:18:00;5.77;;;5.17;;
9657;SDS011;4867;48.112;11.622;2023-05-06T02:20:28;5.17;;;4.67;;
9657;SDS011;4867;48.112;11.622;2023-05-06T02:22:55;6.03;;;5.43;;
9657;SDS011;4867;48.112;11.622;2023-05-06T02:25:22;5.53;;;4.97;;
9657;SDS011;4867;48.112;11.622;2023-05-06T02:27:49;6.77;;;5.00;;
9657;SDS011;4867;48.112;11.622;2023-05-06T02:30:16;5.70;;;4.70;;
9657;SDS011;4867;48.112;11.622;2023-05-06T02:32:44;5.60;;;4.50;;
9657;SDS011;4867;48.112;11.622;2023-05-06T02:35:11;4.57;;;4.03;;
9657;SDS011;4867;48.112;11.622;2023-05-06T02:37:38;4.70;;;4.20;;
9657;SDS011;4867;48.112;11.622;2023-05-06T02:40:06;6.27;;;4.70;;
9657;SDS011;4867;48.112;11.622;2023-05-06T02:42:34;7.27;;;5.27;;
9657;SDS011;4867;48.112;11.622;2023-05-06T02:45:02;5.03;;;4.53;;
9657;SDS011;4867;48.112;11.622;2023-05-06T02:47:31;7.17;;;4.60;;
9657;SDS011;4867;48.112;11.622;2023-05-06T02:49:58;4.40;;;3.60;;
9657;SDS011;4867;48.112;11.622;2023-05-06T02:52:25;5.33;;;4.83;;
9657;SDS011;4867;48.112;11.622;2023-05-06T02:54:53;4.17;;;3.77;;
9657;SDS011;4867;48.112;11.622;2023-05-06T02:57:20;5.20;;;4.70;;
9657;SDS011;4867;48.112;11.622;2023-05-06T02:59:47;7.23;;;4.83;;
9657;SDS011;4867;48.112;11.622;2023-05-06T03:02:14;4.97;;;4.47;;
9657;SDS011;4867;48.112;11.622;2023-05-06T03:04:42;5.90;;;5.30;;
9657;SDS011;4867;48.112;11.622;2023-05-06T03:07:10;5.10;;;4.60;;
9657;SDS011;4867;48.112;11.622;2023-05-06T03:09:39;5.37;;;4.87;;
9657;SDS011;4867;48.112;11.622;2023-05-06T03:12:07;6.60;;;5.30;;
9657;SDS011;4867;48.112;11.622;2023-05-06T03:14:35;5.80;;;5.30;;
9657;SDS011;4867;48.112;11.622;2023-05-06T03:17:03;6.93;;;5.67;;
9657;SDS011;4867;48.112;11.622;2023-05-06T03:19:33;5.50;;;5.03;;
9657;SDS011;4867;48.112;11.622;2023-05-06T03:22:00;5.60;;;4.60;;
9657;SDS011;4867;48.112;11.622;2023-05-06T03:24:30;5.13;;;4.63;;
9657;SDS011;4867;48.112;11.622;2023-05-06T03:26:57;6.57;;;4.30;;
9657;SDS011;4867;48.112;11.622;2023-05-06T03:29:25;5.47;;;4.67;;
9657;SDS011;4867;48.112;11.622;2023-05-06T03:31:54;6.73;;;5.43;;
9657;SDS011;4867;48.112;11.622;2023-05-06T03:34:24;5.13;;;4.63;;
9657;SDS011;4867;48.112;11.622;2023-05-06T03:36:51;5.17;;;4.73;;
9657;SDS011;4867;48.112;11.622;2023-05-06T03:39:18;9.43;;;5.93;;
9657;SDS011;4867;48.112;11.622;2023-05-06T03:41:46;6.13;;;5.40;;
9657;SDS011;4867;48.112;11.622;2023-05-06T03:44:14;5.53;;;4.53;;
9657;SDS011;4867;48.112;11.622;2023-05-06T03:46:42;4.43;;;4.03;;
9657;SDS011;4867;48.112;11.622;2023-05-06T03:49:11;6.90;;;4.60;;
9657;SDS011;4867;48.112;11.622;2023-05-06T03:51:39;6.30;;;4.50;;
9657;SDS011;4867;48.112;11.622;2023-05-06T03:54:07;5.20;;;4.70;;
9657;SDS011;4867;48.112;11.622;2023-05-06T03:56:35;4.37;;;3.80;;
9657;SDS011;4867;48.112;11.622;2023-05-06T03:59:04;4.27;;;3.93;;
9657;SDS011;4867;48.112;11.622;2023-05-06T04:01:32;5.50;;;4.13;;
9657;SDS011;4867;48.112;11.622;2023-05-06T04:03:59;4.53;;;4.13;;
9657;SDS011;4867;48.112;11.622;2023-05-06T04:06:27;4.73;;;4.23;;
9657;SDS011;4867;48.112;11.622;2023-05-06T04:08:54;7.27;;;4.63;;
9657;SDS011;4867;48.112;11.622;2023-05-06T04:11:22;5.37;;;4.20;;
9657;SDS011;4867;48.112;11.622;2023-05-06T04:13:50;3.83;;;3.53;;
9657;SDS011;4867;48.112;11.622;2023-05-06T04:16:20;6.83;;;4.53;;
9657;SDS011;4867;48.112;11.622;2023-05-06T04:18:47;5.23;;;4.17;;
9657;SDS011;4867;48.112;11.622;2023-05-06T04:21:17;5.50;;;4.07;;
9657;SDS011;4867;48.112;11.622;2023-05-06T04:23:51;5.27;;;3.90;;
9657;SDS011;4867;48.112;11.622;2023-05-06T04:26:25;3.83;;;3.43;;
9657;SDS011;4867;48.112;11.622;2023-05-06T04:28:53;3.97;;;3.57;;
9657;SDS011;4867;48.112;11.622;2023-05-06T04:31:21;6.87;;;3.83;;
9657;SDS011;4867;48.112;11.622;2023-05-06T04:33:50;6.17;;;3.63;;
9657;SDS011;4867;48.112;11.622;2023-05-06T04:36:22;4.83;;;3.33;;
9657;SDS011;4867;48.112;11.622;2023-05-06T04:39:12;4.37;;;3.37;;
9657;SDS011;4867;48.112;11.622;2023-05-06T04:41:40;4.47;;;3.60;;
9657;SDS011;4867;48.112;11.622;2023-05-06T04:44:10;5.20;;;4.10;;
9657;SDS011;4867;48.112;11.622;2023-05-06T04:46:40;4.43;;;3.80;;
9657;SDS011;4867;48.112;11.622;2023-05-06T04:49:08;3.60;;;3.30;;
9657;SDS011;4867;48.112;11.622;2023-05-06T04:51:38;3.60;;;3.30;;
9657;SDS011;4867;48.112;11.622;2023-05-06T04:54:05;3.73;;;3.43;;
9657;SDS011;4867;48.112;11.622;2023-05-06T04:56:33;4.13;;;3.47;;
9657;SDS011;4867;48.112;11.622;2023-05-06T04:59:01;3.73;;;3.40;;
9657;SDS011;4867;48.112;11.622;2023-05-06T05:01:28;4.50;;;3.67;;
9657;SDS011;4867;48.112;11.622;2023-05-06T05:03:55;4.03;;;3.30;;
9657;SDS011;4867;48.112;11.622;2023-05-06T05:06:23;6.30;;;3.43;;
9657;SDS011;4867;48.112;11.622;2023-05-06T05:08:51;5.83;;;3.30;;
9657;SDS011;4867;48.112;11.622;2023-05-06T05:11:21;3.70;;;3.40;;
9657;SDS011;4867;48.112;11.622;2023-05-06T05:13:48;3.40;;;3.07;;
9657;SDS011;4867;48.112;11.622;2023-05-06T05:16:16;4.00;;;3.60;;
9657;SDS011;4867;48.112;11.622;2023-05-06T05:18:45;3.30;;;3.00;;
9657;SDS011;4867;48.112;11.622;2023-05-06T05:21:17;3.17;;;2.97;;
9657;SDS011;4867;48.112;11.622;2023-05-06T05:23:46;4.13;;;3.33;;
9657;SDS011;4867;48.112;11.622;2023-05-06T05:26:14;3.97;;;2.93;;
9657;SDS011;4867;48.112;11.622;2023-05-06T05:28:45;2.90;;;2.70;;
9657;SDS011;4867;48.112;11.622;2023-05-06T05:31:12;3.87;;;3.07;;
9657;SDS011;4867;48.112;11.622;2023-05-06T05:33:41;4.10;;;3.20;;
9657;SDS011;4867;48.112;11.622;2023-05-06T05:36:12;3.57;;;3.00;;
9657;SDS011;4867;48.112;11.622;2023-05-06T05:38:42;4.63;;;2.70;;
9657;SDS011;4867;48.112;11.622;2023-05-06T05:41:10;3.27;;;2.57;;
9657;SDS011;4867;48.112;11.622;2023-05-06T05:43:37;3.40;;;3.10;;
9657;SDS011;4867;48.112;11.622;2023-05-06T05:46:05;3.30;;;3.00;;
9657;SDS011;4867;48.112;11.622;2023-05-06T05:48:32;3.87;;;3.47;;
9657;SDS011;4867;48.112;11.622;2023-05-06T05:51:02;3.60;;;3.30;;
9657;SDS011;4867;48.112;11.622;2023-05-06T05:53:29;3.80;;;3.10;;
9657;SDS011;4867;48.112;11.622;2023-05-06T05:55:57;4.67;;;3.70;;
9657;SDS011;4867;48.112;11.622;2023-05-06T05:58:25;3.40;;;3.10;;
9657;SDS011;4867;48.112;11.622;2023-05-06T06:00:56;3.80;;;3.07;;
9657;SDS011;4867;48.112;11.622;2023-05-06T06:03:24;4.00;;;3.00;;
9657;SDS011;4867;48.112;11.622;2023-05-06T06:05:51;4.67;;;3.10;;
9657;SDS011;4867;48.112;11.622;2023-05-06T06:08:22;3.40;;;3.03;;
9657;SDS011;4867;48.112;11.622;2023-05-06T06:10:51;3.40;;;3.10;;
9657;SDS011;4867;48.112;11.622;2023-05-06T06:13:22;2.87;;;2.60;;
9657;SDS011;4867;48.112;11.622;2023-05-06T06:15:54;3.33;;;3.03;;
9657;SDS011;4867;48.112;11.622;2023-05-06T06:18:22;3.20;;;2.90;;
9657;SDS011;4867;48.112;11.622;2023-05-06T06:20:50;3.03;;;2.83;;
9657;SDS011;4867;48.112;11.622;2023-05-06T06:23:19;4.00;;;3.60;;
9657;SDS011;4867;48.112;11.622;2023-05-06T06:25:47;5.17;;;3.70;;
9657;SDS011;4867;48.112;11.622;2023-05-06T06:28:14;4.37;;;3.97;;
9657;SDS011;4867;48.112;11.622;2023-05-06T06:30:43;5.43;;;4.23;;
9657;SDS011;4867;48.112;11.622;2023-05-06T06:33:10;4.50;;;4.10;;
9657;SDS011;4867;48.112;11.622;2023-05-06T06:35:39;4.53;;;4.13;;
9657;SDS011;4867;48.112;11.622;2023-05-06T06:38:06;6.00;;;4.43;;
9657;SDS011;4867;48.112;11.622;2023-05-06T06:40:33;4.83;;;4.43;;
9657;SDS011;4867;48.112;11.622;2023-05-06T06:43:01;5.10;;;4.50;;
9657;SDS011;4867;48.112;11.622;2023-05-06T06:45:51;5.17;;;4.60;;
9657;SDS011;4867;48.112;11.622;2023-05-06T06:48:19;6.47;;;4.77;;
9657;SDS011;4867;48.112;11.622;2023-05-06T06:50:46;5.67;;;4.97;;
9657;SDS011;4867;48.112;11.622;2023-05-06T06:53:14;5.20;;;4.70;;
9657;SDS011;4867;48.112;11.622;2023-05-06T06:55:42;6.67;;;5.33;;
9657;SDS011;4867;48.112;11.622;2023-05-06T06:58:10;5.83;;;4.90;;
9657;SDS011;4867;48.112;11.622;2023-05-06T07:00:38;7.77;;;5.53;;
9657;SDS011;4867;48.112;11.622;2023-05-06T07:03:05;6.40;;;5.80;;
9657;SDS011;4867;48.112;11.622;2023-05-06T07:05:32;6.83;;;5.90;;
9657;SDS011;4867;48.112;11.622;2023-05-06T07:07:59;6.57;;;5.97;;
9657;SDS011;4867;48.112;11.622;2023-05-06T07:10:27;10.17;;;6.07;;
9657;SDS011;4867;48.112;11.622;2023-05-06T07:12:54;6.83;;;6.23;;
9657;SDS011;4867;48.112;11.622;2023-05-06T07:15:22;7.90;;;6.93;;
9657;SDS011;4867;48.112;11.622;2023-05-06T07:17:49;7.03;;;6.40;;
9657;SDS011;4867;48.112;11.622;2023-05-06T07:20:17;7.97;;;7.20;;
9657;SDS011;4867;48.112;11.622;2023-05-06T07:22:44;7.80;;;7.20;;
9657;SDS011;4867;48.112;11.622;2023-05-06T07:25:11;9.17;;;8.37;;
9657;SDS011;4867;48.112;11.622;2023-05-06T07:27:39;9.77;;;8.87;;
9657;SDS011;4867;48.112;11.622;2023-05-06T07:30:06;9.10;;;8.07;;
9657;SDS011;4867;48.112;11.622;2023-05-06T07:32:34;9.10;;;8.20;;
9657;SDS011;4867;48.112;11.622;2023-05-06T07:35:02;11.57;;;7.73;;
9657;SDS011;4867;48.112;11.622;2023-05-06T07:37:29;11.57;;;8.70;;
9657;SDS011;4867;48.112;11.622;2023-05-06T07:39:56;9.63;;;8.73;;
9657;SDS011;4867;48.112;11.622;2023-05-06T07:42:24;10.90;;;8.87;;
9657;SDS011;4867;48.112;11.622;2023-05-06T07:44:51;10.97;;;9.27;;
9657;SDS011;4867;48.112;11.622;2023-05-06T07:47:29;9.30;;;8.47;;
9657;SDS011;4867;48.112;11.622;2023-05-06T07:49:57;10.23;;;8.63;;
9657;SDS011;4867;48.112;11.622;2023-05-06T07:52:25;10.80;;;8.43;;
9657;SDS011;4867;48.112;11.622;2023-05-06T07:54:53;9.97;;;9.07;;
9657;SDS011;4867;48.112;11.622;2023-05-06T07:57:20;10.07;;;9.07;;
9657;SDS011;4867;48.112;11.622;2023-05-06T07:59:48;10.03;;;8.53;;
9657;SDS011;4867;48.112;11.622;2023-05-06T08:02:16;9.37;;;8.57;;
9657;SDS011;4867;48.112;11.622;2023-05-06T08:04:44;8.73;;;7.93;;
9657;SDS011;4867;48.112;11.622;2023-05-06T08:07:12;8.07;;;7.37;;
9657;SDS011;4867;48.112;11.622;2023-05-06T08:09:40;8.47;;;7.67;;
9657;SDS011;4867;48.112;11.622;2023-05-06T08:12:07;9.90;;;9.10;;
9657;SDS011;4867;48.112;11.622;2023-05-06T08:14:35;8.93;;;8.13;;
9657;SDS011;4867;48.112;11.622;2023-05-06T08:17:02;9.70;;;8.80;;
9657;SDS011;4867;48.112;11.622;2023-05-06T08:19:29;9.13;;;8.33;;
9657;SDS011;4867;48.112;11.622;2023-05-06T08:21:57;7.27;;;6.67;;
9657;SDS011;4867;48.112;11.622;2023-05-06T08:24:24;7.97;;;7.27;;
9657;SDS011;4867;48.112;11.622;2023-05-06T08:26:51;8.73;;;7.90;;
9657;SDS011;4867;48.112;11.622;2023-05-06T08:29:18;7.40;;;6.80;;
9657;SDS011;4867;48.112;11.622;2023-05-06T08:31:46;8.50;;;6.73;;
9657;SDS011;4867;48.112;11.622;2023-05-06T08:34:13;7.00;;;6.17;;
9657;SDS011;4867;48.112;11.622;2023-05-06T08:36:44;7.40;;;6.80;;
9657;SDS011;4867;48.112;11.622;2023-05-06T08:39:11;7.87;;;6.90;;
9657;SDS011;4867;48.112;11.622;2023-05-06T08:41:40;7.23;;;5.97;;
9657;SDS011;4867;48.112;11.622;2023-05-06T08:44:14;8.20;;;5.80;;
9657;SDS011;4867;48.112;11.622;2023-05-06T08:46:44;5.77;;;5.27;;
9657;SDS011;4867;48.112;11.622;2023-05-06T08:49:12;5.60;;;5.10;;
9657;SDS011;4867;48.112;11.622;2023-05-06T08:51:41;7.17;;;5.23;;
9657;SDS011;4867;48.112;11.622;2023-05-06T08:54:10;7.07;;;6.47;;
9657;SDS011;4867;48.112;11.622;2023-05-06T08:56:39;6.27;;;5.67;;
9657;SDS011;4867;48.112;11.622;2023-05-06T08:59:10;5.87;;;5.27;;
9657;SDS011;4867;48.112;11.622;2023-05-06T09:01:39;5.40;;;4.90;;
9657;SDS011;4867;48.112;11.622;2023-05-06T09:04:07;6.07;;;5.17;;
9657;SDS011;4867;48.112;11.622;2023-05-06T09:06:35;5.80;;;5.30;;
9657;SDS011;4867;48.112;11.622;2023-05-06T09:09:02;5.73;;;5.23;;
9657;SDS011;4867;48.112;11.622;2023-05-06T09:11:30;5.40;;;4.90;;
9657;SDS011;4867;48.112;11.622;2023-05-06T09:14:10;5.30;;;4.90;;
9657;SDS011;4867;48.112;11.622;2023-05-06T09:16:40;6.33;;;5.83;;
9657;SDS011;4867;48.112;11.622;2023-05-06T09:19:12;6.37;;;5.07;;
9657;SDS011;4867;48.112;11.622;2023-05-06T09:21:40;6.63;;;4.90;;
9657;SDS011;4867;48.112;11.622;2023-05-06T09:24:09;4.80;;;4.30;;
9657;SDS011;4867;48.112;11.622;2023-05-06T09:26:38;5.43;;;4.47;;
9657;SDS011;4867;48.112;11.622;2023-05-06T09:29:06;4.67;;;4.27;;
9657;SDS011;4867;48.112;11.622;2023-05-06T09:31:39;4.33;;;3.80;;
9657;SDS011;4867;48.112;11.622;2023-05-06T09:34:07;5.33;;;4.67;;
9657;SDS011;4867;48.112;11.622;2023-05-06T09:36:35;5.40;;;4.90;;
9657;SDS011;4867;48.112;11.622;2023-05-06T09:39:03;5.63;;;4.90;;
9657;SDS011;4867;48.112;11.622;2023-05-06T09:41:30;5.27;;;4.23;;
9657;SDS011;4867;48.112;11.622;2023-05-06T09:43:57;6.00;;;5.40;;
9657;SDS011;4867;48.112;11.622;2023-05-06T09:46:25;5.23;;;4.30;;
9657;SDS011;4867;48.112;11.622;2023-05-06T09:48:55;5.40;;;4.10;;
9657;SDS011;4867;48.112;11.622;2023-05-06T09:51:24;4.40;;;4.00;;
9657;SDS011;4867;48.112;11.622;2023-05-06T09:53:53;5.17;;;3.90;;
9657;SDS011;4867;48.112;11.622;2023-05-06T09:56:23;4.87;;;3.90;;
9657;SDS011;4867;48.112;11.622;2023-05-06T09:58:51;4.07;;;3.70;;
9657;SDS011;4867;48.112;11.622;2023-05-06T10:01:21;4.50;;;3.80;;
9657;SDS011;4867;48.112;11.622;2023-05-06T10:04:03;3.83;;;3.43;;
9657;SDS011;4867;48.112;11.622;2023-05-06T10:06:35;5.60;;;3.63;;
9657;SDS011;4867;48.112;11.622;2023-05-06T10:09:02;4.37;;;3.70;;
9657;SDS011;4867;48.112;11.622;2023-05-06T10:11:31;5.37;;;3.87;;
9657;SDS011;4867;48.112;11.622;2023-05-06T10:13:59;4.30;;;3.70;;
9657;SDS011;4867;48.112;11.622;2023-05-06T10:16:28;3.70;;;3.40;;
9657;SDS011;4867;48.112;11.622;2023-05-06T10:18:56;4.83;;;3.47;;
9657;SDS011;4867;48.112;11.622;2023-05-06T10:21:26;4.00;;;3.70;;
9657;SDS011;4867;48.112;11.622;2023-05-06T10:24:04;5.10;;;3.93;;
9657;SDS011;4867;48.112;11.622;2023-05-06T10:26:35;5.33;;;4.30;;
9657;SDS011;4867;48.112;11.622;2023-05-06T10:29:07;4.27;;;3.87;;
9657;SDS011;4867;48.112;11.622;2023-05-06T10:31:37;4.40;;;4.00;;
9657;SDS011;4867;48.112;11.622;2023-05-06T10:34:09;4.53;;;4.10;;
9657;SDS011;4867;48.112;11.622;2023-05-06T10:36:37;4.93;;;4.40;;
9657;SDS011;4867;48.112;11.622;2023-05-06T10:39:07;4.23;;;3.73;;
9657;SDS011;4867;48.112;11.622;2023-05-06T10:41:35;5.57;;;4.37;;
9657;SDS011;4867;48.112;11.622;2023-05-06T10:44:03;3.40;;;2.80;;
9657;SDS011;4867;48.112;11.622;2023-05-06T10:46:31;3.27;;;2.97;;
9657;SDS011;4867;48.112;11.622;2023-05-06T10:49:22;4.07;;;3.30;;
9657;SDS011;4867;48.112;11.622;2023-05-06T10:52:09;3.70;;;3.40;;
9657;SDS011;4867;48.112;11.622;2023-05-06T10:54:48;3.40;;;3.10;;
9657;SDS011;4867;48.112;11.622;2023-05-06T10:57:17;4.33;;;3.43;;
9657;SDS011;4867;48.112;11.622;2023-05-06T10:59:46;3.93;;;3.23;;
9657;SDS011;4867;48.112;11.622;2023-05-06T11:02:15;4.00;;;3.60;;
9657;SDS011;4867;48.112;11.622;2023-05-06T11:04:50;5.37;;;3.83;;
9657;SDS011;4867;48.112;11.622;2023-05-06T11:07:22;3.80;;;3.50;;
9657;SDS011;4867;48.112;11.622;2023-05-06T11:09:59;5.17;;;3.53;;
9657;SDS011;4867;48.112;11.622;2023-05-06T11:16:00;3.50;;;3.20;;
9657;SDS011;4867;48.112;11.622;2023-05-06T11:26:15;4.63;;;3.23;;
9657;SDS011;4867;48.112;11.622;2023-05-06T11:28:43;3.83;;;3.53;;
9657;SDS011;4867;48.112;11.622;2023-05-06T11:31:12;4.00;;;3.70;;
9657;SDS011;4867;48.112;11.622;2023-05-06T11:33:47;4.07;;;3.50;;
9657;SDS011;4867;48.112;11.622;2023-05-06T11:36:16;3.83;;;3.53;;
9657;SDS011;4867;48.112;11.622;2023-05-06T11:38:45;3.77;;;2.83;;
9657;SDS011;4867;48.112;11.622;2023-05-06T11:41:18;5.23;;;3.70;;
9657;SDS011;4867;48.112;11.622;2023-05-06T11:43:48;3.27;;;2.90;;
9657;SDS011;4867;48.112;11.622;2023-05-06T11:46:19;3.20;;;2.90;;
9657;SDS011;4867;48.112;11.622;2023-05-06T11:48:49;5.57;;;2.70;;
9657;SDS011;4867;48.112;11.622;2023-05-06T11:51:23;8.00;;;2.80;;
9657;SDS011;4867;48.112;11.622;2023-05-06T11:53:51;2.97;;;2.77;;
9657;SDS011;4867;48.112;11.622;2023-05-06T11:56:19;14.13;;;3.70;;
9657;SDS011;4867;48.112;11.622;2023-05-06T11:58:46;3.40;;;3.10;;
9657;SDS011;4867;48.112;11.622;2023-05-06T12:01:14;3.27;;;2.87;;
9657;SDS011;4867;48.112;11.622;2023-05-06T12:03:41;3.93;;;2.97;;
9657;SDS011;4867;48.112;11.622;2023-05-06T12:06:08;3.73;;;3.27;;
9657;SDS011;4867;48.112;11.622;2023-05-06T12:08:36;3.73;;;3.00;;
9657;SDS011;4867;48.112;11.622;2023-05-06T12:11:07;4.33;;;3.10;;
9657;SDS011;4867;48.112;11.622;2023-05-06T12:13:35;3.37;;;3.07;;
9657;SDS011;4867;48.112;11.622;2023-05-06T12:16:03;3.77;;;3.10;;
9657;SDS011;4867;48.112;11.622;2023-05-06T12:18:31;3.30;;;3.00;;
9657;SDS011;4867;48.112;11.622;2023-05-06T12:21:02;3.73;;;3.13;;
9657;SDS011;4867;48.112;11.622;2023-05-06T12:23:29;3.17;;;2.80;;
9657;SDS011;4867;48.112;11.622;2023-05-06T12:26:00;3.33;;;2.83;;
9657;SDS011;4867;48.112;11.622;2023-05-06T12:28:33;4.93;;;3.10;;
9657;SDS011;4867;48.112;11.622;2023-05-06T12:31:21;6.13;;;3.00;;
9657;SDS011;4867;48.112;11.622;2023-05-06T12:33:49;3.03;;;2.73;;
9657;SDS011;4867;48.112;11.622;2023-05-06T12:36:17;4.87;;;2.83;;
9657;SDS011;4867;48.112;11.622;2023-05-06T12:38:57;4.50;;;3.13;;
9657;SDS011;4867;48.112;11.622;2023-05-06T12:41:38;4.60;;;2.67;;
9657;SDS011;4867;48.112;11.622;2023-05-06T12:47:17;2.80;;;2.60;;
9657;SDS011;4867;48.112;11.622;2023-05-06T12:49:46;3.20;;;2.90;;
9657;SDS011;4867;48.112;11.622;2023-05-06T12:52:18;4.47;;;2.80;;
9657;SDS011;4867;48.112;11.622;2023-05-06T12:54:47;3.57;;;2.90;;
9657;SDS011;4867;48.112;11.622;2023-05-06T12:57:15;4.47;;;2.50;;
9657;SDS011;4867;48.112;11.622;2023-05-06T12:59:43;3.33;;;2.60;;
9657;SDS011;4867;48.112;11.622;2023-05-06T13:02:13;2.60;;;2.40;;
9657;SDS011;4867;48.112;11.622;2023-05-06T13:04:41;2.70;;;2.40;;
9657;SDS011;4867;48.112;11.622;2023-05-06T13:07:10;4.23;;;2.57;;
9657;SDS011;4867;48.112;11.622;2023-05-06T13:09:39;3.20;;;2.67;;
9657;SDS011;4867;48.112;11.622;2023-05-06T13:12:06;3.40;;;2.80;;
9657;SDS011;4867;48.112;11.622;2023-05-06T13:14:34;3.97;;;3.23;;
9657;SDS011;4867;48.112;11.622;2023-05-06T13:17:05;6.07;;;5.47;;
9657;SDS011;4867;48.112;11.622;2023-05-06T13:19:32;3.60;;;3.30;;
9657;SDS011;4867;48.112;11.622;2023-05-06T13:22:00;3.10;;;2.80;;
9657;SDS011;4867;48.112;11.622;2023-05-06T13:24:28;3.13;;;2.77;;
9657;SDS011;4867;48.112;11.622;2023-05-06T13:26:55;3.00;;;2.70;;
9657;SDS011;4867;48.112;11.622;2023-05-06T13:29:25;3.03;;;2.80;;
9657;SDS011;4867;48.112;11.622;2023-05-06T13:31:52;3.10;;;2.60;;
9657;SDS011;4867;48.112;11.622;2023-05-06T13:34:20;5.10;;;2.63;;
9657;SDS011;4867;48.112;11.622;2023-05-06T13:36:47;3.03;;;2.40;;
9657;SDS011;4867;48.112;11.622;2023-05-06T13:39:15;5.37;;;2.60;;
9657;SDS011;4867;48.112;11.622;2023-05-06T13:41:44;3.20;;;2.67;;
9657;SDS011;4867;48.112;11.622;2023-05-06T13:44:13;3.03;;;2.47;;
9657;SDS011;4867;48.112;11.622;2023-05-06T13:46:40;2.97;;;2.60;;
9657;SDS011;4867;48.112;11.622;2023-05-06T13:49:11;4.00;;;2.60;;
9657;SDS011;4867;48.112;11.622;2023-05-06T13:51:39;4.10;;;2.50;;
9657;SDS011;4867;48.112;11.622;2023-05-06T13:54:06;3.57;;;2.70;;
9657;SDS011;4867;48.112;11.622;2023-05-06T13:56:34;3.00;;;2.70;;
9657;SDS011;4867;48.112;11.622;2023-05-06T13:59:01;3.00;;;2.70;;
9657;SDS011;4867;48.112;11.622;2023-05-06T14:01:29;3.03;;;2.53;;
9657;SDS011;4867;48.112;11.622;2023-05-06T14:03:56;2.90;;;2.60;;
9657;SDS011;4867;48.112;11.622;2023-05-06T14:06:23;2.70;;;2.50;;
9657;SDS011;4867;48.112;11.622;2023-05-06T14:08:50;2.90;;;2.70;;
9657;SDS011;4867;48.112;11.622;2023-05-06T14:11:18;3.20;;;2.60;;
9657;SDS011;4867;48.112;11.622;2023-05-06T14:13:45;3.38;;;2.53;;
9657;SDS011;4867;48.112;11.622;2023-05-06T14:16:13;2.93;;;2.70;;
9657;SDS011;4867;48.112;11.622;2023-05-06T14:18:42;2.70;;;2.40;;
9657;SDS011;4867;48.112;11.622;2023-05-06T14:21:09;3.60;;;2.80;;
9657;SDS011;4867;48.112;11.622;2023-05-06T14:23:36;2.80;;;2.60;;
9657;SDS011;4867;48.112;11.622;2023-05-06T14:26:03;3.00;;;2.43;;
9657;SDS011;4867;48.112;11.622;2023-05-06T14:28:31;3.33;;;2.60;;
9657;SDS011;4867;48.112;11.622;2023-05-06T14:30:58;3.47;;;2.67;;
9657;SDS011;4867;48.112;11.622;2023-05-06T14:33:25;2.90;;;2.50;;
9657;SDS011;4867;48.112;11.622;2023-05-06T14:35:52;3.63;;;2.50;;
9657;SDS011;4867;48.112;11.622;2023-05-06T14:38:20;2.57;;;2.37;;
9657;SDS011;4867;48.112;11.622;2023-05-06T14:40:47;4.10;;;2.60;;
9657;SDS011;4867;48.112;11.622;2023-05-06T14:43:16;2.90;;;2.57;;
9657;SDS011;4867;48.112;11.622;2023-05-06T14:45:43;2.63;;;2.30;;
9657;SDS011;4867;48.112;11.622;2023-05-06T14:48:10;4.97;;;2.80;;
9657;SDS011;4867;48.112;11.622;2023-05-06T14:50:38;3.63;;;2.23;;
9657;SDS011;4867;48.112;11.622;2023-05-06T14:53:05;2.33;;;2.13;;
9657;SDS011;4867;48.112;11.622;2023-05-06T14:55:32;2.80;;;2.40;;
9657;SDS011;4867;48.112;11.622;2023-05-06T14:58:01;2.50;;;2.23;;
9657;SDS011;4867;48.112;11.622;2023-05-06T15:00:29;3.43;;;2.60;;
9657;SDS011;4867;48.112;11.622;2023-05-06T15:02:56;3.47;;;2.50;;
9657;SDS011;4867;48.112;11.622;2023-05-06T15:05:24;3.93;;;2.10;;
9657;SDS011;4867;48.112;11.622;2023-05-06T15:07:52;2.70;;;2.50;;
9657;SDS011;4867;48.112;11.622;2023-05-06T15:10:19;4.60;;;2.40;;
9657;SDS011;4867;48.112;11.622;2023-05-06T15:12:47;3.00;;;2.30;;
9657;SDS011;4867;48.112;11.622;2023-05-06T15:15:14;2.90;;;2.27;;
9657;SDS011;4867;48.112;11.622;2023-05-06T15:17:41;2.35;;;2.15;;
9657;SDS011;4867;48.112;11.622;2023-05-06T15:20:09;4.00;;;2.10;;
9657;SDS011;4867;48.112;11.622;2023-05-06T15:22:36;4.33;;;2.17;;
9657;SDS011;4867;48.112;11.622;2023-05-06T15:25:05;2.60;;;2.10;;
9657;SDS011;4867;48.112;11.622;2023-05-06T15:27:37;3.03;;;2.20;;
9657;SDS011;4867;48.112;11.622;2023-05-06T15:30:05;2.93;;;2.20;;
9657;SDS011;4867;48.112;11.622;2023-05-06T15:32:32;2.13;;;1.93;;
9657;SDS011;4867;48.112;11.622;2023-05-06T15:35:00;2.93;;;2.20;;